sensor_id;sensor_type;location;lat;lon;timestamp;temperature;humidity
13960;DHT22;7052;51.050;3.716;2023-04-07T00:01:49;7.90;99.90
13960;DHT22;7052;51.050;3.716;2023-04-07T00:04:16;7.90;99.90
13960;DHT22;7052;51.050;3.716;2023-04-07T00:06:44;7.90;99.90
13960;DHT22;7052;51.050;3.716;2023-04-07T00:09:12;7.90;99.90
13960;DHT22;7052;51.050;3.716;2023-04-07T00:11:39;7.90;99.90
13960;DHT22;7052;51.050;3.716;2023-04-07T00:14:07;7.90;99.90
13960;DHT22;7052;51.050;3.716;2023-04-07T00:16:36;7.90;99.90
13960;DHT22;7052;51.050;3.716;2023-04-07T00:19:03;7.90;99.90
13960;DHT22;7052;51.050;3.716;2023-04-07T00:21:31;7.90;99.90
13960;DHT22;7052;51.050;3.716;2023-04-07T00:23:58;7.90;99.90
13960;DHT22;7052;51.050;3.716;2023-04-07T00:26:25;7.90;99.90
13960;DHT22;7052;51.050;3.716;2023-04-07T00:28:55;7.90;99.90
13960;DHT22;7052;51.050;3.716;2023-04-07T00:31:25;7.90;99.90
13960;DHT22;7052;51.050;3.716;2023-04-07T00:33:52;7.90;99.90
13960;DHT22;7052;51.050;3.716;2023-04-07T00:36:24;7.90;99.90
13960;DHT22;7052;51.050;3.716;2023-04-07T00:38:53;7.90;99.90
13960;DHT22;7052;51.050;3.716;2023-04-07T00:41:20;7.90;99.90
13960;DHT22;7052;51.050;3.716;2023-04-07T00:43:49;7.90;99.90
13960;DHT22;7052;51.050;3.716;2023-04-07T00:46:18;7.90;99.90
13960;DHT22;7052;51.050;3.716;2023-04-07T00:48:51;7.90;99.90
13960;DHT22;7052;51.050;3.716;2023-04-07T00:51:20;7.90;99.90
13960;DHT22;7052;51.050;3.716;2023-04-07T00:53:47;7.90;99.90
13960;DHT22;7052;51.050;3.716;2023-04-07T00:56:15;8.00;99.90
13960;DHT22;7052;51.050;3.716;2023-04-07T00:58:41;7.90;99.90
13960;DHT22;7052;51.050;3.716;2023-04-07T01:01:14;7.90;99.90
13960;DHT22;7052;51.050;3.716;2023-04-07T01:03:47;7.90;99.90
13960;DHT22;7052;51.050;3.716;2023-04-07T01:06:19;7.90;99.90
13960;DHT22;7052;51.050;3.716;2023-04-07T01:08:53;7.90;99.90
13960;DHT22;7052;51.050;3.716;2023-04-07T01:11:31;7.90;99.90
13960;DHT22;7052;51.050;3.716;2023-04-07T01:14:02;7.90;99.90
13960;DHT22;7052;51.050;3.716;2023-04-07T01:16:31;7.90;99.90
13960;DHT22;7052;51.050;3.716;2023-04-07T01:19:12;7.90;99.90
13960;DHT22;7052;51.050;3.716;2023-04-07T01:21:43;7.90;99.90
13960;DHT22;7052;51.050;3.716;2023-04-07T01:24:33;7.90;99.90
13960;DHT22;7052;51.050;3.716;2023-04-07T01:27:14;7.90;99.90
13960;DHT22;7052;51.050;3.716;2023-04-07T01:29:46;7.90;99.90
13960;DHT22;7052;51.050;3.716;2023-04-07T01:32:16;7.90;99.90
13960;DHT22;7052;51.050;3.716;2023-04-07T01:34:46;7.90;99.90
13960;DHT22;7052;51.050;3.716;2023-04-07T01:37:15;7.90;99.90
13960;DHT22;7052;51.050;3.716;2023-04-07T01:39:43;7.90;99.90
13960;DHT22;7052;51.050;3.716;2023-04-07T01:42:14;7.90;99.90
13960;DHT22;7052;51.050;3.716;2023-04-07T01:44:46;7.90;99.90
13960;DHT22;7052;51.050;3.716;2023-04-07T01:47:15;7.90;99.90
13960;DHT22;7052;51.050;3.716;2023-04-07T01:49:46;7.90;99.90
13960;DHT22;7052;51.050;3.716;2023-04-07T01:52:13;7.90;99.90
13960;DHT22;7052;51.050;3.716;2023-04-07T01:54:41;7.90;99.90
13960;DHT22;7052;51.050;3.716;2023-04-07T01:57:08;7.90;99.90
13960;DHT22;7052;51.050;3.716;2023-04-07T01:59:35;7.90;99.90
13960;DHT22;7052;51.050;3.716;2023-04-07T02:02:04;7.90;99.90
13960;DHT22;7052;51.050;3.716;2023-04-07T02:04:38;7.90;99.90
13960;DHT22;7052;51.050;3.716;2023-04-07T02:07:09;7.90;99.90
13960;DHT22;7052;51.050;3.716;2023-04-07T02:09:41;7.90;99.90
13960;DHT22;7052;51.050;3.716;2023-04-07T02:12:11;7.80;99.90
13960;DHT22;7052;51.050;3.716;2023-04-07T02:14:39;7.80;99.90
13960;DHT22;7052;51.050;3.716;2023-04-07T02:17:08;7.80;99.90
13960;DHT22;7052;51.050;3.716;2023-04-07T02:19:36;7.80;99.90
13960;DHT22;7052;51.050;3.716;2023-04-07T02:22:04;7.70;99.90
13960;DHT22;7052;51.050;3.716;2023-04-07T02:24:32;7.70;99.90
13960;DHT22;7052;51.050;3.716;2023-04-07T02:26:59;7.70;99.90
13960;DHT22;7052;51.050;3.716;2023-04-07T02:29:26;7.70;99.90
13960;DHT22;7052;51.050;3.716;2023-04-07T02:31:55;7.70;99.90
13960;DHT22;7052;51.050;3.716;2023-04-07T02:34:23;7.60;99.90
13960;DHT22;7052;51.050;3.716;2023-04-07T02:36:50;7.60;99.90
13960;DHT22;7052;51.050;3.716;2023-04-07T02:39:20;7.60;99.90
13960;DHT22;7052;51.050;3.716;2023-04-07T02:41:47;7.50;99.90
13960;DHT22;7052;51.050;3.716;2023-04-07T02:44:15;7.50;99.90
13960;DHT22;7052;51.050;3.716;2023-04-07T02:46:43;7.50;99.90
13960;DHT22;7052;51.050;3.716;2023-04-07T02:49:10;7.50;99.90
13960;DHT22;7052;51.050;3.716;2023-04-07T02:51:38;7.40;99.90
13960;DHT22;7052;51.050;3.716;2023-04-07T02:54:07;7.40;99.90
13960;DHT22;7052;51.050;3.716;2023-04-07T02:56:35;7.40;99.90
13960;DHT22;7052;51.050;3.716;2023-04-07T02:59:04;7.40;99.90
13960;DHT22;7052;51.050;3.716;2023-04-07T03:01:32;7.40;99.90
13960;DHT22;7052;51.050;3.716;2023-04-07T03:04:23;7.40;99.90
13960;DHT22;7052;51.050;3.716;2023-04-07T03:06:51;7.40;99.90
13960;DHT22;7052;51.050;3.716;2023-04-07T03:09:18;7.30;99.90
13960;DHT22;7052;51.050;3.716;2023-04-07T03:11:47;7.30;99.90
13960;DHT22;7052;51.050;3.716;2023-04-07T03:14:14;7.30;99.90
13960;DHT22;7052;51.050;3.716;2023-04-07T03:16:41;7.30;99.90
13960;DHT22;7052;51.050;3.716;2023-04-07T03:19:10;7.30;99.90
13960;DHT22;7052;51.050;3.716;2023-04-07T03:21:37;7.30;99.90
13960;DHT22;7052;51.050;3.716;2023-04-07T03:24:08;7.30;99.90
13960;DHT22;7052;51.050;3.716;2023-04-07T03:26:35;7.30;99.90
13960;DHT22;7052;51.050;3.716;2023-04-07T03:29:03;7.30;99.90
13960;DHT22;7052;51.050;3.716;2023-04-07T03:31:30;7.30;99.90
13960;DHT22;7052;51.050;3.716;2023-04-07T03:33:58;7.20;99.90
13960;DHT22;7052;51.050;3.716;2023-04-07T03:36:25;7.20;99.90
13960;DHT22;7052;51.050;3.716;2023-04-07T03:38:53;7.20;99.90
13960;DHT22;7052;51.050;3.716;2023-04-07T03:41:22;7.20;99.90
13960;DHT22;7052;51.050;3.716;2023-04-07T03:43:49;7.10;99.90
13960;DHT22;7052;51.050;3.716;2023-04-07T03:46:18;7.10;99.90
13960;DHT22;7052;51.050;3.716;2023-04-07T03:48:45;7.10;99.90
13960;DHT22;7052;51.050;3.716;2023-04-07T03:51:13;7.10;99.90
13960;DHT22;7052;51.050;3.716;2023-04-07T03:53:42;7.10;99.90
13960;DHT22;7052;51.050;3.716;2023-04-07T03:56:09;7.10;99.90
13960;DHT22;7052;51.050;3.716;2023-04-07T03:58:37;7.10;99.90
13960;DHT22;7052;51.050;3.716;2023-04-07T04:01:07;7.20;99.90
13960;DHT22;7052;51.050;3.716;2023-04-07T04:03:34;7.20;99.90
13960;DHT22;7052;51.050;3.716;2023-04-07T04:06:02;7.10;99.90
13960;DHT22;7052;51.050;3.716;2023-04-07T04:08:29;7.20;99.90
13960;DHT22;7052;51.050;3.716;2023-04-07T04:10:56;7.10;99.90
13960;DHT22;7052;51.050;3.716;2023-04-07T04:13:23;7.10;99.90
13960;DHT22;7052;51.050;3.716;2023-04-07T04:15:52;7.10;99.90
13960;DHT22;7052;51.050;3.716;2023-04-07T04:18:21;7.10;99.90
13960;DHT22;7052;51.050;3.716;2023-04-07T04:20:48;7.10;99.90
13960;DHT22;7052;51.050;3.716;2023-04-07T04:23:16;7.00;99.90
13960;DHT22;7052;51.050;3.716;2023-04-07T04:25:44;7.00;99.90
13960;DHT22;7052;51.050;3.716;2023-04-07T04:28:12;7.00;99.90
13960;DHT22;7052;51.050;3.716;2023-04-07T04:30:39;7.00;99.90
13960;DHT22;7052;51.050;3.716;2023-04-07T04:33:07;7.00;99.90
13960;DHT22;7052;51.050;3.716;2023-04-07T04:35:35;7.00;99.90
13960;DHT22;7052;51.050;3.716;2023-04-07T04:38:04;7.00;99.90
13960;DHT22;7052;51.050;3.716;2023-04-07T04:40:31;7.00;99.90
13960;DHT22;7052;51.050;3.716;2023-04-07T04:42:59;7.00;99.90
13960;DHT22;7052;51.050;3.716;2023-04-07T04:45:31;7.00;99.90
13960;DHT22;7052;51.050;3.716;2023-04-07T04:48:03;7.00;99.90
13960;DHT22;7052;51.050;3.716;2023-04-07T04:50:32;7.00;99.90
13960;DHT22;7052;51.050;3.716;2023-04-07T04:52:59;7.10;99.90
13960;DHT22;7052;51.050;3.716;2023-04-07T04:55:26;7.00;99.90
13960;DHT22;7052;51.050;3.716;2023-04-07T04:57:53;7.00;99.90
13960;DHT22;7052;51.050;3.716;2023-04-07T05:00:21;7.00;99.90
13960;DHT22;7052;51.050;3.716;2023-04-07T05:02:48;7.00;99.90
13960;DHT22;7052;51.050;3.716;2023-04-07T05:05:15;7.00;99.90
13960;DHT22;7052;51.050;3.716;2023-04-07T05:07:44;7.00;99.90
13960;DHT22;7052;51.050;3.716;2023-04-07T05:10:13;6.90;99.90
13960;DHT22;7052;51.050;3.716;2023-04-07T05:12:40;6.90;99.90
13960;DHT22;7052;51.050;3.716;2023-04-07T05:15:09;6.90;99.90
13960;DHT22;7052;51.050;3.716;2023-04-07T05:17:36;6.80;99.90
13960;DHT22;7052;51.050;3.716;2023-04-07T05:20:04;6.80;99.90
13960;DHT22;7052;51.050;3.716;2023-04-07T05:25:01;6.80;99.90
13960;DHT22;7052;51.050;3.716;2023-04-07T05:27:29;6.80;99.90
13960;DHT22;7052;51.050;3.716;2023-04-07T05:29:55;6.80;99.90
13960;DHT22;7052;51.050;3.716;2023-04-07T05:32:27;6.80;99.90
13960;DHT22;7052;51.050;3.716;2023-04-07T05:34:55;6.80;99.90
13960;DHT22;7052;51.050;3.716;2023-04-07T05:37:23;6.80;99.90
13960;DHT22;7052;51.050;3.716;2023-04-07T05:39:50;6.80;99.90
13960;DHT22;7052;51.050;3.716;2023-04-07T05:42:18;6.80;99.90
13960;DHT22;7052;51.050;3.716;2023-04-07T05:44:45;6.80;99.90
13960;DHT22;7052;51.050;3.716;2023-04-07T05:47:13;6.90;99.90
13960;DHT22;7052;51.050;3.716;2023-04-07T05:49:41;6.90;99.90
13960;DHT22;7052;51.050;3.716;2023-04-07T05:52:10;6.90;99.90
13960;DHT22;7052;51.050;3.716;2023-04-07T05:54:37;7.00;99.90
13960;DHT22;7052;51.050;3.716;2023-04-07T05:57:06;7.00;99.90
13960;DHT22;7052;51.050;3.716;2023-04-07T05:59:35;7.00;99.90
13960;DHT22;7052;51.050;3.716;2023-04-07T06:02:02;7.10;99.90
13960;DHT22;7052;51.050;3.716;2023-04-07T06:04:34;7.10;99.90
13960;DHT22;7052;51.050;3.716;2023-04-07T06:07:01;7.10;99.90
13960;DHT22;7052;51.050;3.716;2023-04-07T06:09:28;7.10;99.90
13960;DHT22;7052;51.050;3.716;2023-04-07T06:11:55;7.20;99.90
13960;DHT22;7052;51.050;3.716;2023-04-07T06:14:22;7.10;99.90
13960;DHT22;7052;51.050;3.716;2023-04-07T06:16:51;7.20;99.90
13960;DHT22;7052;51.050;3.716;2023-04-07T06:19:18;7.20;99.90
13960;DHT22;7052;51.050;3.716;2023-04-07T06:21:45;7.30;99.90
13960;DHT22;7052;51.050;3.716;2023-04-07T06:24:12;7.30;99.90
13960;DHT22;7052;51.050;3.716;2023-04-07T06:26:39;7.30;99.90
13960;DHT22;7052;51.050;3.716;2023-04-07T06:29:06;7.40;99.90
13960;DHT22;7052;51.050;3.716;2023-04-07T06:31:35;7.50;99.90
13960;DHT22;7052;51.050;3.716;2023-04-07T06:34:05;7.60;99.90
13960;DHT22;7052;51.050;3.716;2023-04-07T06:36:31;7.70;99.90
13960;DHT22;7052;51.050;3.716;2023-04-07T06:38:59;7.70;99.90
13960;DHT22;7052;51.050;3.716;2023-04-07T06:41:26;7.60;99.90
13960;DHT22;7052;51.050;3.716;2023-04-07T06:43:54;7.80;99.90
13960;DHT22;7052;51.050;3.716;2023-04-07T06:46:21;8.10;99.90
13960;DHT22;7052;51.050;3.716;2023-04-07T06:48:50;8.30;99.90
13960;DHT22;7052;51.050;3.716;2023-04-07T06:51:21;8.30;99.90
13960;DHT22;7052;51.050;3.716;2023-04-07T06:53:49;8.30;99.90
13960;DHT22;7052;51.050;3.716;2023-04-07T06:56:16;8.20;99.90
13960;DHT22;7052;51.050;3.716;2023-04-07T06:58:43;8.20;99.90
13960;DHT22;7052;51.050;3.716;2023-04-07T07:01:10;8.10;99.90
13960;DHT22;7052;51.050;3.716;2023-04-07T07:03:37;8.10;99.90
13960;DHT22;7052;51.050;3.716;2023-04-07T07:06:04;8.00;99.90
13960;DHT22;7052;51.050;3.716;2023-04-07T07:08:35;8.10;99.90
13960;DHT22;7052;51.050;3.716;2023-04-07T07:11:03;8.00;99.90
13960;DHT22;7052;51.050;3.716;2023-04-07T07:13:30;8.00;99.90
13960;DHT22;7052;51.050;3.716;2023-04-07T07:15:58;8.10;99.90
13960;DHT22;7052;51.050;3.716;2023-04-07T07:18:25;8.10;99.90
13960;DHT22;7052;51.050;3.716;2023-04-07T07:20:52;8.10;99.90
13960;DHT22;7052;51.050;3.716;2023-04-07T07:23:18;8.10;99.90
13960;DHT22;7052;51.050;3.716;2023-04-07T07:25:48;8.20;99.90
13960;DHT22;7052;51.050;3.716;2023-04-07T07:28:16;8.20;99.90
13960;DHT22;7052;51.050;3.716;2023-04-07T07:30:43;8.20;99.90
13960;DHT22;7052;51.050;3.716;2023-04-07T07:33:10;8.10;99.90
13960;DHT22;7052;51.050;3.716;2023-04-07T07:35:39;8.10;99.90
13960;DHT22;7052;51.050;3.716;2023-04-07T07:38:07;8.10;99.90
13960;DHT22;7052;51.050;3.716;2023-04-07T07:40:34;8.10;99.90
13960;DHT22;7052;51.050;3.716;2023-04-07T07:43:02;8.20;99.90
13960;DHT22;7052;51.050;3.716;2023-04-07T07:45:30;8.30;99.90
13960;DHT22;7052;51.050;3.716;2023-04-07T07:48:00;8.40;99.90
13960;DHT22;7052;51.050;3.716;2023-04-07T07:50:29;8.50;99.90
13960;DHT22;7052;51.050;3.716;2023-04-07T07:52:56;8.70;99.90
13960;DHT22;7052;51.050;3.716;2023-04-07T07:55:24;8.90;99.90
13960;DHT22;7052;51.050;3.716;2023-04-07T07:57:51;8.90;99.90
13960;DHT22;7052;51.050;3.716;2023-04-07T08:00:28;8.90;99.90
13960;DHT22;7052;51.050;3.716;2023-04-07T08:02:55;9.00;99.90
13960;DHT22;7052;51.050;3.716;2023-04-07T08:05:23;8.90;99.90
13960;DHT22;7052;51.050;3.716;2023-04-07T08:07:51;9.00;99.90
13960;DHT22;7052;51.050;3.716;2023-04-07T08:10:18;9.00;99.90
13960;DHT22;7052;51.050;3.716;2023-04-07T08:12:47;9.00;99.90
13960;DHT22;7052;51.050;3.716;2023-04-07T08:15:14;9.10;99.90
13960;DHT22;7052;51.050;3.716;2023-04-07T08:17:45;9.30;99.90
13960;DHT22;7052;51.050;3.716;2023-04-07T08:20:13;9.50;99.90
13960;DHT22;7052;51.050;3.716;2023-04-07T08:22:40;9.50;99.90
13960;DHT22;7052;51.050;3.716;2023-04-07T08:25:08;9.50;99.90
13960;DHT22;7052;51.050;3.716;2023-04-07T08:27:36;9.50;99.90
13960;DHT22;7052;51.050;3.716;2023-04-07T08:30:04;9.30;99.90
13960;DHT22;7052;51.050;3.716;2023-04-07T08:32:35;9.10;99.90
13960;DHT22;7052;51.050;3.716;2023-04-07T08:35:05;9.10;99.90
13960;DHT22;7052;51.050;3.716;2023-04-07T08:37:33;9.00;99.90
13960;DHT22;7052;51.050;3.716;2023-04-07T08:40:01;9.10;99.90
13960;DHT22;7052;51.050;3.716;2023-04-07T08:42:31;9.10;99.90
13960;DHT22;7052;51.050;3.716;2023-04-07T08:45:02;9.30;99.90
13960;DHT22;7052;51.050;3.716;2023-04-07T08:47:32;9.40;99.90
13960;DHT22;7052;51.050;3.716;2023-04-07T08:50:01;9.60;99.90
13960;DHT22;7052;51.050;3.716;2023-04-07T08:52:33;9.80;99.90
13960;DHT22;7052;51.050;3.716;2023-04-07T08:55:03;10.00;99.90
13960;DHT22;7052;51.050;3.716;2023-04-07T08:57:33;10.00;99.90
13960;DHT22;7052;51.050;3.716;2023-04-07T09:00:02;10.10;99.90
13960;DHT22;7052;51.050;3.716;2023-04-07T09:02:32;10.10;99.90
13960;DHT22;7052;51.050;3.716;2023-04-07T09:05:00;10.20;99.90
13960;DHT22;7052;51.050;3.716;2023-04-07T09:07:30;10.20;99.90
13960;DHT22;7052;51.050;3.716;2023-04-07T09:09:57;10.30;99.90
13960;DHT22;7052;51.050;3.716;2023-04-07T09:12:25;10.30;99.90
13960;DHT22;7052;51.050;3.716;2023-04-07T09:14:52;10.40;99.90
13960;DHT22;7052;51.050;3.716;2023-04-07T09:17:24;10.30;99.90
13960;DHT22;7052;51.050;3.716;2023-04-07T09:19:52;10.40;99.90
13960;DHT22;7052;51.050;3.716;2023-04-07T09:22:37;10.50;99.90
13960;DHT22;7052;51.050;3.716;2023-04-07T09:25:13;10.60;99.90
13960;DHT22;7052;51.050;3.716;2023-04-07T09:27:56;10.80;99.90
13960;DHT22;7052;51.050;3.716;2023-04-07T09:30:25;10.90;99.90
13960;DHT22;7052;51.050;3.716;2023-04-07T09:32:53;11.00;99.90
13960;DHT22;7052;51.050;3.716;2023-04-07T09:35:20;11.00;99.90
13960;DHT22;7052;51.050;3.716;2023-04-07T09:38:11;11.00;99.90
13960;DHT22;7052;51.050;3.716;2023-04-07T09:40:38;11.10;99.90
13960;DHT22;7052;51.050;3.716;2023-04-07T09:43:05;11.10;99.90
13960;DHT22;7052;51.050;3.716;2023-04-07T09:45:35;11.10;99.90
13960;DHT22;7052;51.050;3.716;2023-04-07T09:48:07;11.20;99.90
13960;DHT22;7052;51.050;3.716;2023-04-07T09:50:38;11.20;99.90
13960;DHT22;7052;51.050;3.716;2023-04-07T09:53:06;11.30;99.90
13960;DHT22;7052;51.050;3.716;2023-04-07T09:55:34;11.20;99.90
13960;DHT22;7052;51.050;3.716;2023-04-07T09:58:04;11.00;99.90
13960;DHT22;7052;51.050;3.716;2023-04-07T10:00:32;10.80;99.90
13960;DHT22;7052;51.050;3.716;2023-04-07T10:03:02;10.70;99.90
13960;DHT22;7052;51.050;3.716;2023-04-07T10:05:30;10.60;99.90
13960;DHT22;7052;51.050;3.716;2023-04-07T10:07:59;10.60;99.90
13960;DHT22;7052;51.050;3.716;2023-04-07T10:10:28;10.60;99.90
13960;DHT22;7052;51.050;3.716;2023-04-07T10:12:58;10.60;99.90
13960;DHT22;7052;51.050;3.716;2023-04-07T10:15:26;10.60;99.90
13960;DHT22;7052;51.050;3.716;2023-04-07T10:17:53;10.70;99.90
13960;DHT22;7052;51.050;3.716;2023-04-07T10:20:22;10.80;99.90
13960;DHT22;7052;51.050;3.716;2023-04-07T10:22:52;10.80;99.90
13960;DHT22;7052;51.050;3.716;2023-04-07T10:25:23;10.80;99.90
13960;DHT22;7052;51.050;3.716;2023-04-07T10:28:02;10.80;99.90
13960;DHT22;7052;51.050;3.716;2023-04-07T10:30:32;10.80;99.90
13960;DHT22;7052;51.050;3.716;2023-04-07T10:33:04;10.70;99.90
13960;DHT22;7052;51.050;3.716;2023-04-07T10:36:03;10.70;99.90
13960;DHT22;7052;51.050;3.716;2023-04-07T10:38:33;10.80;99.90
13960;DHT22;7052;51.050;3.716;2023-04-07T10:41:32;10.80;99.90
13960;DHT22;7052;51.050;3.716;2023-04-07T10:44:49;11.10;99.90
13960;DHT22;7052;51.050;3.716;2023-04-07T10:47:17;11.30;99.90
13960;DHT22;7052;51.050;3.716;2023-04-07T10:50:15;11.50;99.90
13960;DHT22;7052;51.050;3.716;2023-04-07T10:52:45;11.60;99.90
13960;DHT22;7052;51.050;3.716;2023-04-07T10:55:30;11.60;99.90
13960;DHT22;7052;51.050;3.716;2023-04-07T10:58:14;11.60;99.90
13960;DHT22;7052;51.050;3.716;2023-04-07T11:03:56;11.90;99.90
13960;DHT22;7052;51.050;3.716;2023-04-07T11:06:23;12.10;99.90
13960;DHT22;7052;51.050;3.716;2023-04-07T11:08:52;12.30;99.90
13960;DHT22;7052;51.050;3.716;2023-04-07T11:11:35;12.30;99.90
13960;DHT22;7052;51.050;3.716;2023-04-07T11:14:03;12.40;99.90
13960;DHT22;7052;51.050;3.716;2023-04-07T11:16:41;12.50;99.90
13960;DHT22;7052;51.050;3.716;2023-04-07T11:19:11;12.50;99.90
13960;DHT22;7052;51.050;3.716;2023-04-07T11:21:39;12.50;99.90
13960;DHT22;7052;51.050;3.716;2023-04-07T11:24:06;12.50;99.90
13960;DHT22;7052;51.050;3.716;2023-04-07T11:26:37;12.60;99.90
13960;DHT22;7052;51.050;3.716;2023-04-07T11:29:06;12.80;99.90
13960;DHT22;7052;51.050;3.716;2023-04-07T11:31:35;12.80;99.90
13960;DHT22;7052;51.050;3.716;2023-04-07T11:34:05;12.90;99.90
13960;DHT22;7052;51.050;3.716;2023-04-07T11:36:37;13.00;99.90
13960;DHT22;7052;51.050;3.716;2023-04-07T11:39:04;12.90;99.90
13960;DHT22;7052;51.050;3.716;2023-04-07T11:41:32;12.70;99.90
13960;DHT22;7052;51.050;3.716;2023-04-07T11:44:06;12.50;99.90
13960;DHT22;7052;51.050;3.716;2023-04-07T11:46:34;12.30;99.90
13960;DHT22;7052;51.050;3.716;2023-04-07T11:49:09;12.00;99.90
13960;DHT22;7052;51.050;3.716;2023-04-07T11:51:42;11.90;99.90
13960;DHT22;7052;51.050;3.716;2023-04-07T11:54:09;11.90;99.90
13960;DHT22;7052;51.050;3.716;2023-04-07T11:56:43;11.90;99.90
13960;DHT22;7052;51.050;3.716;2023-04-07T11:59:20;11.80;99.90
13960;DHT22;7052;51.050;3.716;2023-04-07T12:01:48;11.80;99.90
13960;DHT22;7052;51.050;3.716;2023-04-07T12:04:16;11.90;99.90
13960;DHT22;7052;51.050;3.716;2023-04-07T12:06:47;11.90;99.90
13960;DHT22;7052;51.050;3.716;2023-04-07T12:09:28;12.00;99.90
13960;DHT22;7052;51.050;3.716;2023-04-07T12:11:57;12.10;99.90
13960;DHT22;7052;51.050;3.716;2023-04-07T12:14:25;12.10;99.90
13960;DHT22;7052;51.050;3.716;2023-04-07T12:16:54;12.20;99.90
13960;DHT22;7052;51.050;3.716;2023-04-07T12:19:22;12.20;99.90
13960;DHT22;7052;51.050;3.716;2023-04-07T12:21:51;12.20;99.90
13960;DHT22;7052;51.050;3.716;2023-04-07T12:24:18;12.20;99.90
13960;DHT22;7052;51.050;3.716;2023-04-07T12:26:48;12.10;99.90
13960;DHT22;7052;51.050;3.716;2023-04-07T12:29:15;12.20;99.90
13960;DHT22;7052;51.050;3.716;2023-04-07T12:31:44;12.10;99.90
13960;DHT22;7052;51.050;3.716;2023-04-07T12:34:11;12.30;99.90
13960;DHT22;7052;51.050;3.716;2023-04-07T12:36:40;12.40;99.90
13960;DHT22;7052;51.050;3.716;2023-04-07T12:39:09;12.30;99.90
13960;DHT22;7052;51.050;3.716;2023-04-07T12:41:37;12.30;99.90
13960;DHT22;7052;51.050;3.716;2023-04-07T12:44:05;12.30;99.90
13960;DHT22;7052;51.050;3.716;2023-04-07T12:46:35;12.20;99.90
13960;DHT22;7052;51.050;3.716;2023-04-07T12:49:03;12.20;99.90
13960;DHT22;7052;51.050;3.716;2023-04-07T12:51:30;12.10;99.90
13960;DHT22;7052;51.050;3.716;2023-04-07T12:53:59;12.20;99.90
13960;DHT22;7052;51.050;3.716;2023-04-07T12:56:29;12.10;99.90
13960;DHT22;7052;51.050;3.716;2023-04-07T12:58:57;12.10;99.90
13960;DHT22;7052;51.050;3.716;2023-04-07T13:01:23;12.10;99.90
13960;DHT22;7052;51.050;3.716;2023-04-07T13:03:50;12.00;99.90
13960;DHT22;7052;51.050;3.716;2023-04-07T13:06:17;12.00;99.90
13960;DHT22;7052;51.050;3.716;2023-04-07T13:08:45;12.00;99.90
13960;DHT22;7052;51.050;3.716;2023-04-07T13:11:14;12.00;99.90
13960;DHT22;7052;51.050;3.716;2023-04-07T13:13:42;12.00;99.90
13960;DHT22;7052;51.050;3.716;2023-04-07T13:16:12;12.00;99.90
13960;DHT22;7052;51.050;3.716;2023-04-07T13:18:40;12.00;99.90
13960;DHT22;7052;51.050;3.716;2023-04-07T13:21:08;12.00;99.90
13960;DHT22;7052;51.050;3.716;2023-04-07T13:23:37;12.20;99.90
13960;DHT22;7052;51.050;3.716;2023-04-07T13:26:04;12.10;99.90
13960;DHT22;7052;51.050;3.716;2023-04-07T13:28:31;12.00;99.90
13960;DHT22;7052;51.050;3.716;2023-04-07T13:31:01;11.90;99.90
13960;DHT22;7052;51.050;3.716;2023-04-07T13:33:29;12.00;99.90
13960;DHT22;7052;51.050;3.716;2023-04-07T13:35:56;11.90;99.90
13960;DHT22;7052;51.050;3.716;2023-04-07T13:38:26;11.80;99.90
13960;DHT22;7052;51.050;3.716;2023-04-07T13:40:57;11.80;99.90
13960;DHT22;7052;51.050;3.716;2023-04-07T13:43:25;11.80;99.90
13960;DHT22;7052;51.050;3.716;2023-04-07T13:45:52;11.80;99.90
13960;DHT22;7052;51.050;3.716;2023-04-07T13:48:22;11.80;99.90
13960;DHT22;7052;51.050;3.716;2023-04-07T13:50:49;11.80;99.90
13960;DHT22;7052;51.050;3.716;2023-04-07T13:53:17;11.80;99.90
13960;DHT22;7052;51.050;3.716;2023-04-07T13:55:50;11.80;99.90
13960;DHT22;7052;51.050;3.716;2023-04-07T13:58:17;11.70;99.90
13960;DHT22;7052;51.050;3.716;2023-04-07T14:01:08;11.70;99.90
13960;DHT22;7052;51.050;3.716;2023-04-07T14:03:56;11.60;99.90
13960;DHT22;7052;51.050;3.716;2023-04-07T14:06:23;11.70;99.90
13960;DHT22;7052;51.050;3.716;2023-04-07T14:08:51;11.60;99.90
13960;DHT22;7052;51.050;3.716;2023-04-07T14:11:18;11.50;99.90
13960;DHT22;7052;51.050;3.716;2023-04-07T14:14:05;11.40;99.90
13960;DHT22;7052;51.050;3.716;2023-04-07T14:16:32;11.40;99.90
13960;DHT22;7052;51.050;3.716;2023-04-07T14:19:01;11.40;99.90
13960;DHT22;7052;51.050;3.716;2023-04-07T14:21:29;11.50;99.90
13960;DHT22;7052;51.050;3.716;2023-04-07T14:23:57;11.50;99.90
13960;DHT22;7052;51.050;3.716;2023-04-07T14:26:24;11.60;99.90
13960;DHT22;7052;51.050;3.716;2023-04-07T14:28:51;11.60;99.90
13960;DHT22;7052;51.050;3.716;2023-04-07T14:31:18;11.60;99.90
13960;DHT22;7052;51.050;3.716;2023-04-07T14:33:45;11.50;99.90
13960;DHT22;7052;51.050;3.716;2023-04-07T14:36:14;11.40;99.90
13960;DHT22;7052;51.050;3.716;2023-04-07T14:38:45;11.20;99.90
13960;DHT22;7052;51.050;3.716;2023-04-07T14:41:12;11.10;99.90
13960;DHT22;7052;51.050;3.716;2023-04-07T14:43:39;11.00;99.90
13960;DHT22;7052;51.050;3.716;2023-04-07T14:46:09;10.90;99.90
13960;DHT22;7052;51.050;3.716;2023-04-07T14:48:37;10.90;99.90
13960;DHT22;7052;51.050;3.716;2023-04-07T14:51:09;10.90;99.90
13960;DHT22;7052;51.050;3.716;2023-04-07T14:53:39;10.90;99.90
13960;DHT22;7052;51.050;3.716;2023-04-07T14:56:08;10.80;99.90
13960;DHT22;7052;51.050;3.716;2023-04-07T14:58:35;10.80;99.90
13960;DHT22;7052;51.050;3.716;2023-04-07T15:01:08;10.90;99.90
13960;DHT22;7052;51.050;3.716;2023-04-07T15:03:35;10.90;99.90
13960;DHT22;7052;51.050;3.716;2023-04-07T15:06:09;10.80;99.90
13960;DHT22;7052;51.050;3.716;2023-04-07T15:08:39;10.70;99.90
13960;DHT22;7052;51.050;3.716;2023-04-07T15:11:07;10.80;99.90
13960;DHT22;7052;51.050;3.716;2023-04-07T15:13:34;10.70;99.90
13960;DHT22;7052;51.050;3.716;2023-04-07T15:16:06;10.50;99.90
13960;DHT22;7052;51.050;3.716;2023-04-07T15:18:33;10.30;99.90
13960;DHT22;7052;51.050;3.716;2023-04-07T15:21:00;10.20;99.90
13960;DHT22;7052;51.050;3.716;2023-04-07T15:23:28;10.10;99.90
13960;DHT22;7052;51.050;3.716;2023-04-07T15:25:59;10.00;99.90
13960;DHT22;7052;51.050;3.716;2023-04-07T15:28:26;10.00;99.90
13960;DHT22;7052;51.050;3.716;2023-04-07T15:30:54;10.00;99.90
13960;DHT22;7052;51.050;3.716;2023-04-07T15:33:21;10.00;99.90
13960;DHT22;7052;51.050;3.716;2023-04-07T15:35:48;10.10;99.90
13960;DHT22;7052;51.050;3.716;2023-04-07T15:38:17;10.10;99.90
13960;DHT22;7052;51.050;3.716;2023-04-07T15:40:43;10.20;99.90
13960;DHT22;7052;51.050;3.716;2023-04-07T15:43:14;10.30;99.90
13960;DHT22;7052;51.050;3.716;2023-04-07T15:45:42;10.30;99.90
13960;DHT22;7052;51.050;3.716;2023-04-07T15:48:09;10.30;99.90
13960;DHT22;7052;51.050;3.716;2023-04-07T15:50:37;10.20;99.90
13960;DHT22;7052;51.050;3.716;2023-04-07T15:53:05;10.30;99.90
13960;DHT22;7052;51.050;3.716;2023-04-07T15:55:33;10.30;99.90
13960;DHT22;7052;51.050;3.716;2023-04-07T15:58:01;10.30;99.90
13960;DHT22;7052;51.050;3.716;2023-04-07T16:00:32;10.20;99.90
13960;DHT22;7052;51.050;3.716;2023-04-07T16:03:01;10.20;99.90
13960;DHT22;7052;51.050;3.716;2023-04-07T16:05:29;10.20;99.90
13960;DHT22;7052;51.050;3.716;2023-04-07T16:07:57;10.10;99.90
13960;DHT22;7052;51.050;3.716;2023-04-07T16:10:24;10.10;99.90
13960;DHT22;7052;51.050;3.716;2023-04-07T16:12:52;10.10;99.90
13960;DHT22;7052;51.050;3.716;2023-04-07T16:15:19;10.10;99.90